sensor_id;sensor_type;location;lat;lon;timestamp;pressure;altitude;pressure_sealevel;temperature;humidity
71126;BME280;58785;55.566;38.058;2022-08-01T00:01:50;100544.94;;;15.05;69.82
71126;BME280;58785;55.566;38.058;2022-08-01T00:04:15;100550.47;;;15.04;69.58
71126;BME280;58785;55.566;38.058;2022-08-01T00:06:41;100545.41;;;15.01;70.06
71126;BME280;58785;55.566;38.058;2022-08-01T00:09:06;100537.88;;;14.96;70.13
71126;BME280;58785;55.566;38.058;2022-08-01T00:11:32;100540.22;;;14.99;69.69
71126;BME280;58785;55.566;38.058;2022-08-01T00:13:57;100536.19;;;14.95;69.88
71126;BME280;58785;55.566;38.058;2022-08-01T00:16:23;100544.91;;;14.97;69.96
71126;BME280;58785;55.566;38.058;2022-08-01T00:18:52;100534.50;;;14.94;69.89
71126;BME280;58785;55.566;38.058;2022-08-01T00:21:18;100529.78;;;14.88;70.06
71126;BME280;58785;55.566;38.058;2022-08-01T00:23:43;100535.81;;;14.90;69.97
71126;BME280;58785;55.566;38.058;2022-08-01T00:26:11;100531.63;;;14.87;69.96
71126;BME280;58785;55.566;38.058;2022-08-01T00:28:37;100523.91;;;14.84;70.41
71126;BME280;58785;55.566;38.058;2022-08-01T00:31:02;100534.81;;;14.91;70.55
71126;BME280;58785;55.566;38.058;2022-08-01T00:33:28;100533.13;;;14.90;70.53
71126;BME280;58785;55.566;38.058;2022-08-01T00:35:54;100534.97;;;14.89;70.89
71126;BME280;58785;55.566;38.058;2022-08-01T00:38:20;100527.44;;;14.85;70.76
71126;BME280;58785;55.566;38.058;2022-08-01T00:40:45;100534.66;;;14.84;70.86
71126;BME280;58785;55.566;38.058;2022-08-01T00:43:11;100522.72;;;14.79;70.65
71126;BME280;58785;55.566;38.058;2022-08-01T00:45:37;100533.28;;;14.80;70.90
71126;BME280;58785;55.566;38.058;2022-08-01T00:48:03;100532.63;;;14.78;70.73
71126;BME280;58785;55.566;38.058;2022-08-01T00:50:28;100533.78;;;14.76;70.55
71126;BME280;58785;55.566;38.058;2022-08-01T00:52:55;100527.06;;;14.72;71.02
71126;BME280;58785;55.566;38.058;2022-08-01T00:55:20;100524.69;;;14.69;70.55
71126;BME280;58785;55.566;38.058;2022-08-01T00:57:48;100534.44;;;14.70;70.42
71126;BME280;58785;55.566;38.058;2022-08-01T01:00:14;100528.56;;;14.66;70.73
71126;BME280;58785;55.566;38.058;2022-08-01T01:02:39;100529.88;;;14.62;70.63
71126;BME280;58785;55.566;38.058;2022-08-01T01:05:05;100533.41;;;14.62;70.85
71126;BME280;58785;55.566;38.058;2022-08-01T01:12:50;100527.31;;;14.52;70.95
71126;BME280;58785;55.566;38.058;2022-08-01T01:15:29;100540.44;;;14.55;70.63
71126;BME280;58785;55.566;38.058;2022-08-01T01:18:17;100536.22;;;14.53;71.04
71126;BME280;58785;55.566;38.058;2022-08-01T01:20:44;100534.53;;;14.52;71.10
71126;BME280;58785;55.566;38.058;2022-08-01T01:29:06;100543.94;;;14.48;71.04
71126;BME280;58785;55.566;38.058;2022-08-01T01:31:42;100537.19;;;14.44;71.14
71126;BME280;58785;55.566;38.058;2022-08-01T01:34:11;100536.06;;;14.46;70.98
71126;BME280;58785;55.566;38.058;2022-08-01T01:36:39;100536.72;;;14.48;71.06
71126;BME280;58785;55.566;38.058;2022-08-01T01:39:05;100531.53;;;14.47;71.29
71126;BME280;58785;55.566;38.058;2022-08-01T01:41:32;100513.88;;;14.44;70.93
71126;BME280;58785;55.566;38.058;2022-08-01T01:44:01;100529.03;;;14.53;71.29
71126;BME280;58785;55.566;38.058;2022-08-01T01:46:28;100534.25;;;14.55;71.32
71126;BME280;58785;55.566;38.058;2022-08-01T01:48:57;100537.75;;;14.55;70.83
71126;BME280;58785;55.566;38.058;2022-08-01T01:51:25;100531.38;;;14.56;70.95
71126;BME280;58785;55.566;38.058;2022-08-01T01:53:53;100523.13;;;14.50;71.13
71126;BME280;58785;55.566;38.058;2022-08-01T01:56:20;100532.41;;;14.55;71.08
71126;BME280;58785;55.566;38.058;2022-08-01T01:58:53;100532.06;;;14.58;70.91
71126;BME280;58785;55.566;38.058;2022-08-01T02:01:21;100537.25;;;14.60;70.93
71126;BME280;58785;55.566;38.058;2022-08-01T02:03:49;100534.56;;;14.60;71.52
71126;BME280;58785;55.566;38.058;2022-08-01T02:06:16;100523.00;;;14.59;71.28
71126;BME280;58785;55.566;38.058;2022-08-01T02:08:42;100534.25;;;14.63;71.23
71126;BME280;58785;55.566;38.058;2022-08-01T02:11:10;100531.09;;;14.68;71.45
71126;BME280;58785;55.566;38.058;2022-08-01T02:13:54;100532.94;;;14.67;71.07
71126;BME280;58785;55.566;38.058;2022-08-01T02:16:24;100531.41;;;14.73;71.11
71126;BME280;58785;55.566;38.058;2022-08-01T02:18:53;100536.97;;;14.79;71.05
71126;BME280;58785;55.566;38.058;2022-08-01T02:21:30;100533.28;;;14.80;71.45
71126;BME280;58785;55.566;38.058;2022-08-01T02:24:06;100529.78;;;14.88;71.02
71126;BME280;58785;55.566;38.058;2022-08-01T02:26:34;100524.06;;;14.91;70.85
71126;BME280;58785;55.566;38.058;2022-08-01T02:29:06;100526.59;;;15.01;71.25
71126;BME280;58785;55.566;38.058;2022-08-01T02:31:35;100526.13;;;15.13;70.88
71126;BME280;58785;55.566;38.058;2022-08-01T02:34:07;100516.38;;;15.29;70.41
71126;BME280;58785;55.566;38.058;2022-08-01T02:36:38;100525.28;;;15.70;70.07
71126;BME280;58785;55.566;38.058;2022-08-01T02:39:08;100521.50;;;16.12;69.18
71126;BME280;58785;55.566;38.058;2022-08-01T02:41:38;100532.06;;;16.60;68.53
71126;BME280;58785;55.566;38.058;2022-08-01T02:44:06;100530.53;;;16.97;67.79
71126;BME280;58785;55.566;38.058;2022-08-01T02:46:41;100520.84;;;17.34;66.91
71126;BME280;58785;55.566;38.058;2022-08-01T02:49:10;100532.66;;;17.70;66.87
71126;BME280;58785;55.566;38.058;2022-08-01T02:51:39;100526.44;;;17.99;66.89
71126;BME280;58785;55.566;38.058;2022-08-01T02:54:08;100530.44;;;18.33;66.08
71126;BME280;58785;55.566;38.058;2022-08-01T02:56:34;100531.63;;;18.60;65.48
71126;BME280;58785;55.566;38.058;2022-08-01T02:59:07;100534.28;;;18.89;64.71
71126;BME280;58785;55.566;38.058;2022-08-01T03:01:34;100532.22;;;19.13;63.96
71126;BME280;58785;55.566;38.058;2022-08-01T03:04:03;100538.53;;;19.41;63.28
71126;BME280;58785;55.566;38.058;2022-08-01T03:06:31;100540.69;;;19.67;62.58
71126;BME280;58785;55.566;38.058;2022-08-01T03:08:59;100548.94;;;19.87;62.35
71126;BME280;58785;55.566;38.058;2022-08-01T03:11:25;100543.47;;;20.08;61.54
71126;BME280;58785;55.566;38.058;2022-08-01T03:13:55;100540.66;;;20.30;60.78
71126;BME280;58785;55.566;38.058;2022-08-01T03:16:24;100540.38;;;20.53;60.24
71126;BME280;58785;55.566;38.058;2022-08-01T03:18:53;100536.91;;;20.72;59.69
71126;BME280;58785;55.566;38.058;2022-08-01T03:21:22;100545.28;;;20.84;59.22
71126;BME280;58785;55.566;38.058;2022-08-01T03:23:50;100543.88;;;20.94;58.88
71126;BME280;58785;55.566;38.058;2022-08-01T03:26:17;100545.16;;;21.12;58.62
71126;BME280;58785;55.566;38.058;2022-08-01T03:28:46;100534.53;;;21.23;58.03
71126;BME280;58785;55.566;38.058;2022-08-01T03:31:13;100538.13;;;21.37;57.65
71126;BME280;58785;55.566;38.058;2022-08-01T03:33:39;100541.28;;;21.47;57.16
71126;BME280;58785;55.566;38.058;2022-08-01T03:36:08;100536.88;;;21.53;57.06
71126;BME280;58785;55.566;38.058;2022-08-01T03:38:37;100540.00;;;21.63;56.69
71126;BME280;58785;55.566;38.058;2022-08-01T03:41:19;100533.94;;;21.74;56.06
71126;BME280;58785;55.566;38.058;2022-08-01T03:43:57;100538.94;;;21.91;55.88
71126;BME280;58785;55.566;38.058;2022-08-01T03:46:32;100527.03;;;21.92;55.44
71126;BME280;58785;55.566;38.058;2022-08-01T03:49:02;100540.84;;;21.97;55.50
71126;BME280;58785;55.566;38.058;2022-08-01T03:51:30;100536.63;;;22.01;55.60
71126;BME280;58785;55.566;38.058;2022-08-01T03:53:58;100528.91;;;22.11;55.34
71126;BME280;58785;55.566;38.058;2022-08-01T03:56:26;100531.34;;;22.32;54.95
71126;BME280;58785;55.566;38.058;2022-08-01T03:58:53;100533.84;;;22.47;54.23
71126;BME280;58785;55.566;38.058;2022-08-01T04:01:19;100519.19;;;22.48;54.11
71126;BME280;58785;55.566;38.058;2022-08-01T04:03:45;100525.22;;;22.57;53.61
71126;BME280;58785;55.566;38.058;2022-08-01T04:06:11;100513.75;;;22.55;53.47
71126;BME280;58785;55.566;38.058;2022-08-01T04:08:39;100531.41;;;22.71;53.12
71126;BME280;58785;55.566;38.058;2022-08-01T04:11:08;100526.56;;;22.79;52.90
71126;BME280;58785;55.566;38.058;2022-08-01T04:13:34;100523.19;;;22.90;52.83
71126;BME280;58785;55.566;38.058;2022-08-01T04:16:00;100520.25;;;22.92;52.80
71126;BME280;58785;55.566;38.058;2022-08-01T04:18:26;100523.06;;;23.10;52.77
71126;BME280;58785;55.566;38.058;2022-08-01T04:20:51;100526.13;;;23.20;52.33
71126;BME280;58785;55.566;38.058;2022-08-01T04:23:21;100526.31;;;23.26;52.85
71126;BME280;58785;55.566;38.058;2022-08-01T04:25:48;100534.00;;;23.35;52.62
71126;BME280;58785;55.566;38.058;2022-08-01T04:28:15;100536.88;;;23.40;52.05
71126;BME280;58785;55.566;38.058;2022-08-01T04:30:43;100534.88;;;23.61;51.76
71126;BME280;58785;55.566;38.058;2022-08-01T04:33:13;100538.28;;;23.74;51.85
71126;BME280;58785;55.566;38.058;2022-08-01T04:35:45;100536.81;;;23.78;51.08
71126;BME280;58785;55.566;38.058;2022-08-01T04:38:15;100533.41;;;23.83;50.59
71126;BME280;58785;55.566;38.058;2022-08-01T04:40:44;100512.84;;;23.87;50.19
71126;BME280;58785;55.566;38.058;2022-08-01T04:43:13;100531.53;;;24.02;49.63
71126;BME280;58785;55.566;38.058;2022-08-01T04:45:39;100535.03;;;24.09;49.78
71126;BME280;58785;55.566;38.058;2022-08-01T04:48:06;100530.19;;;24.11;49.56
71126;BME280;58785;55.566;38.058;2022-08-01T04:50:32;100538.84;;;24.26;48.95
71126;BME280;58785;55.566;38.058;2022-08-01T04:52:58;100535.47;;;24.24;49.09
71126;BME280;58785;55.566;38.058;2022-08-01T04:55:23;100536.31;;;24.25;49.16
71126;BME280;58785;55.566;38.058;2022-08-01T04:57:49;100538.94;;;24.38;49.14
71126;BME280;58785;55.566;38.058;2022-08-01T05:00:15;100539.00;;;24.50;48.76
71126;BME280;58785;55.566;38.058;2022-08-01T05:02:44;100543.84;;;24.66;48.50
71126;BME280;58785;55.566;38.058;2022-08-01T05:05:12;100541.03;;;24.73;48.25
71126;BME280;58785;55.566;38.058;2022-08-01T05:07:38;100548.41;;;24.84;47.63
71126;BME280;58785;55.566;38.058;2022-08-01T05:10:04;100542.06;;;24.90;46.72
71126;BME280;58785;55.566;38.058;2022-08-01T05:12:31;100543.25;;;24.94;46.90
71126;BME280;58785;55.566;38.058;2022-08-01T05:15:00;100531.41;;;25.00;46.90
71126;BME280;58785;55.566;38.058;2022-08-01T05:17:29;100541.09;;;25.14;46.48
71126;BME280;58785;55.566;38.058;2022-08-01T05:19:59;100543.81;;;25.14;46.07
71126;BME280;58785;55.566;38.058;2022-08-01T05:22:24;100540.41;;;25.19;46.02
71126;BME280;58785;55.566;38.058;2022-08-01T05:24:53;100534.97;;;25.19;46.20
71126;BME280;58785;55.566;38.058;2022-08-01T05:27:18;100535.91;;;25.25;45.93
71126;BME280;58785;55.566;38.058;2022-08-01T05:29:44;100545.66;;;25.32;46.31
71126;BME280;58785;55.566;38.058;2022-08-01T05:32:10;100534.66;;;25.39;46.59
71126;BME280;58785;55.566;38.058;2022-08-01T05:34:36;100546.06;;;25.47;46.29
71126;BME280;58785;55.566;38.058;2022-08-01T05:37:02;100535.84;;;25.55;45.58
71126;BME280;58785;55.566;38.058;2022-08-01T05:39:27;100527.78;;;25.60;45.66
71126;BME280;58785;55.566;38.058;2022-08-01T05:41:53;100536.59;;;25.73;45.91
71126;BME280;58785;55.566;38.058;2022-08-01T05:44:19;100540.41;;;25.84;45.68
71126;BME280;58785;55.566;38.058;2022-08-01T05:46:45;100533.03;;;25.85;45.30
71126;BME280;58785;55.566;38.058;2022-08-01T05:49:11;100526.41;;;25.92;44.75
71126;BME280;58785;55.566;38.058;2022-08-01T05:51:37;100536.03;;;26.06;45.04
71126;BME280;58785;55.566;38.058;2022-08-01T05:54:02;100536.13;;;26.23;44.53
71126;BME280;58785;55.566;38.058;2022-08-01T05:56:28;100535.03;;;26.24;44.19
71126;BME280;58785;55.566;38.058;2022-08-01T05:58:54;100526.63;;;26.26;44.69
71126;BME280;58785;55.566;38.058;2022-08-01T06:01:20;100533.97;;;26.25;44.96
71126;BME280;58785;55.566;38.058;2022-08-01T06:03:45;100528.03;;;26.28;44.78
71126;BME280;58785;55.566;38.058;2022-08-01T06:06:11;100533.88;;;26.20;44.58
71126;BME280;58785;55.566;38.058;2022-08-01T06:08:37;100524.28;;;26.06;45.05
71126;BME280;58785;55.566;38.058;2022-08-01T06:11:03;100531.84;;;26.04;45.70
71126;BME280;58785;55.566;38.058;2022-08-01T06:13:28;100531.28;;;26.02;45.09
71126;BME280;58785;55.566;38.058;2022-08-01T06:15:54;100531.50;;;26.12;44.60
71126;BME280;58785;55.566;38.058;2022-08-01T06:18:20;100539.56;;;26.30;44.25
71126;BME280;58785;55.566;38.058;2022-08-01T06:20:46;100534.34;;;26.41;43.73
71126;BME280;58785;55.566;38.058;2022-08-01T06:23:12;100539.28;;;26.55;43.67
71126;BME280;58785;55.566;38.058;2022-08-01T06:25:39;100536.38;;;26.74;43.53
71126;BME280;58785;55.566;38.058;2022-08-01T06:28:04;100536.25;;;26.80;42.64
71126;BME280;58785;55.566;38.058;2022-08-01T06:30:30;100533.94;;;26.89;42.66
71126;BME280;58785;55.566;38.058;2022-08-01T06:32:55;100532.44;;;27.10;42.68
71126;BME280;58785;55.566;38.058;2022-08-01T06:35:24;100539.69;;;27.16;42.50
71126;BME280;58785;55.566;38.058;2022-08-01T06:37:49;100543.91;;;27.24;41.92
71126;BME280;58785;55.566;38.058;2022-08-01T06:40:15;100538.28;;;27.30;41.36
71126;BME280;58785;55.566;38.058;2022-08-01T06:42:41;100536.28;;;27.26;41.74
71126;BME280;58785;55.566;38.058;2022-08-01T06:45:09;100542.00;;;27.24;42.16
71126;BME280;58785;55.566;38.058;2022-08-01T06:47:35;100537.03;;;27.21;41.92
71126;BME280;58785;55.566;38.058;2022-08-01T06:50:02;100542.44;;;27.16;41.53
71126;BME280;58785;55.566;38.058;2022-08-01T06:52:28;100539.91;;;27.14;41.50
71126;BME280;58785;55.566;38.058;2022-08-01T06:54:54;100533.84;;;27.12;41.05
71126;BME280;58785;55.566;38.058;2022-08-01T06:57:19;100545.00;;;27.23;40.75
71126;BME280;58785;55.566;38.058;2022-08-01T06:59:45;100547.47;;;27.24;41.15
71126;BME280;58785;55.566;38.058;2022-08-01T07:02:11;100537.97;;;27.27;40.57
71126;BME280;58785;55.566;38.058;2022-08-01T07:04:36;100549.56;;;27.34;40.62
71126;BME280;58785;55.566;38.058;2022-08-01T07:07:02;100548.41;;;27.30;40.44
71126;BME280;58785;55.566;38.058;2022-08-01T07:09:28;100551.66;;;27.27;40.64
71126;BME280;58785;55.566;38.058;2022-08-01T07:11:53;100548.09;;;27.26;39.92
71126;BME280;58785;55.566;38.058;2022-08-01T07:14:20;100540.53;;;27.16;39.86
71126;BME280;58785;55.566;38.058;2022-08-01T07:16:46;100546.56;;;27.18;40.93
71126;BME280;58785;55.566;38.058;2022-08-01T07:19:12;100548.22;;;27.19;40.22
71126;BME280;58785;55.566;38.058;2022-08-01T07:21:38;100549.72;;;27.10;39.90
71126;BME280;58785;55.566;38.058;2022-08-01T07:24:09;100550.56;;;26.99;40.02
71126;BME280;58785;55.566;38.058;2022-08-01T07:26:35;100543.19;;;27.00;40.17
71126;BME280;58785;55.566;38.058;2022-08-01T07:29:01;100539.50;;;27.06;40.74
71126;BME280;58785;55.566;38.058;2022-08-01T07:31:28;100545.56;;;27.08;40.47
71126;BME280;58785;55.566;38.058;2022-08-01T07:33:54;100538.69;;;27.22;40.59
71126;BME280;58785;55.566;38.058;2022-08-01T07:36:19;100537.47;;;27.30;40.23
71126;BME280;58785;55.566;38.058;2022-08-01T07:38:45;100538.28;;;27.30;40.99
71126;BME280;58785;55.566;38.058;2022-08-01T07:41:14;100532.50;;;27.27;40.57
71126;BME280;58785;55.566;38.058;2022-08-01T07:43:39;100541.19;;;27.24;40.54
71126;BME280;58785;55.566;38.058;2022-08-01T07:46:05;100537.19;;;27.14;40.65
71126;BME280;58785;55.566;38.058;2022-08-01T07:48:31;100539.88;;;26.98;40.37
71126;BME280;58785;55.566;38.058;2022-08-01T07:50:57;100532.75;;;26.85;40.87
71126;BME280;58785;55.566;38.058;2022-08-01T07:53:23;100534.66;;;26.84;40.66
71126;BME280;58785;55.566;38.058;2022-08-01T07:55:48;100537.00;;;27.04;40.92
71126;BME280;58785;55.566;38.058;2022-08-01T07:58:15;100540.78;;;27.32;41.60
71126;BME280;58785;55.566;38.058;2022-08-01T08:00:43;100534.66;;;27.41;40.32
71126;BME280;58785;55.566;38.058;2022-08-01T08:03:11;100534.31;;;27.38;40.25
71126;BME280;58785;55.566;38.058;2022-08-01T08:05:37;100534.50;;;27.48;40.44
71126;BME280;58785;55.566;38.058;2022-08-01T08:08:06;100538.56;;;27.62;40.30
71126;BME280;58785;55.566;38.058;2022-08-01T08:10:32;100518.53;;;27.62;39.49
71126;BME280;58785;55.566;38.058;2022-08-01T08:12:58;100535.09;;;27.67;39.56
71126;BME280;58785;55.566;38.058;2022-08-01T08:15:24;100529.69;;;27.72;39.39
71126;BME280;58785;55.566;38.058;2022-08-01T08:17:49;100524.09;;;27.84;39.08
71126;BME280;58785;55.566;38.058;2022-08-01T08:20:15;100535.22;;;27.94;39.30
71126;BME280;58785;55.566;38.058;2022-08-01T08:22:41;100529.50;;;27.95;39.59
71126;BME280;58785;55.566;38.058;2022-08-01T08:25:07;100521.53;;;27.94;39.89
71126;BME280;58785;55.566;38.058;2022-08-01T08:27:34;100525.75;;;28.01;39.84
71126;BME280;58785;55.566;38.058;2022-08-01T08:30:00;100514.94;;;27.95;39.62
71126;BME280;58785;55.566;38.058;2022-08-01T08:32:26;100529.50;;;27.95;39.15
71126;BME280;58785;55.566;38.058;2022-08-01T08:34:51;100518.88;;;27.99;39.06
71126;BME280;58785;55.566;38.058;2022-08-01T08:37:17;100524.25;;;27.94;38.84
71126;BME280;58785;55.566;38.058;2022-08-01T08:39:43;100519.03;;;27.75;38.66
71126;BME280;58785;55.566;38.058;2022-08-01T08:42:12;100510.25;;;27.57;39.34
71126;BME280;58785;55.566;38.058;2022-08-01T08:44:40;100507.72;;;27.55;39.15
71126;BME280;58785;55.566;38.058;2022-08-01T08:47:06;100514.66;;;27.58;38.91
71126;BME280;58785;55.566;38.058;2022-08-01T08:49:33;100503.34;;;27.54;38.77
71126;BME280;58785;55.566;38.058;2022-08-01T08:52:01;100511.81;;;27.53;39.01
71126;BME280;58785;55.566;38.058;2022-08-01T08:54:28;100505.59;;;27.57;39.94
71126;BME280;58785;55.566;38.058;2022-08-01T08:56:54;100514.31;;;27.54;40.07
71126;BME280;58785;55.566;38.058;2022-08-01T08:59:21;100505.81;;;27.56;39.71
71126;BME280;58785;55.566;38.058;2022-08-01T09:01:50;100509.22;;;27.63;39.77
71126;BME280;58785;55.566;38.058;2022-08-01T09:04:16;100505.78;;;27.67;39.28
71126;BME280;58785;55.566;38.058;2022-08-01T09:06:41;100500.88;;;27.69;39.12
71126;BME280;58785;55.566;38.058;2022-08-01T09:09:08;100496.31;;;27.58;39.53
71126;BME280;58785;55.566;38.058;2022-08-01T09:11:34;100503.09;;;27.56;39.66
71126;BME280;58785;55.566;38.058;2022-08-01T09:14:03;100490.91;;;27.46;39.18
71126;BME280;58785;55.566;38.058;2022-08-01T09:16:30;100500.63;;;27.37;39.75
71126;BME280;58785;55.566;38.058;2022-08-01T09:19:10;100499.84;;;27.25;39.35
71126;BME280;58785;55.566;38.058;2022-08-01T09:21:37;100499.38;;;27.28;40.05
71126;BME280;58785;55.566;38.058;2022-08-01T09:24:03;100493.31;;;27.43;39.16
71126;BME280;58785;55.566;38.058;2022-08-01T09:26:35;100495.13;;;27.54;38.51
71126;BME280;58785;55.566;38.058;2022-08-01T09:29:17;100495.72;;;27.56;37.90
71126;BME280;58785;55.566;38.058;2022-08-01T09:31:44;100479.59;;;27.43;38.12
71126;BME280;58785;55.566;38.058;2022-08-01T09:34:10;100487.41;;;27.34;38.58
71126;BME280;58785;55.566;38.058;2022-08-01T09:39:18;100484.25;;;27.09;38.61
71126;BME280;58785;55.566;38.058;2022-08-01T09:41:45;100480.78;;;27.02;38.09
71126;BME280;58785;55.566;38.058;2022-08-01T09:44:11;100488.25;;;26.89;38.43
71126;BME280;58785;55.566;38.058;2022-08-01T09:46:52;100478.97;;;26.90;38.63
71126;BME280;58785;55.566;38.058;2022-08-01T09:49:28;100483.31;;;27.03;39.18
71126;BME280;58785;55.566;38.058;2022-08-01T09:51:53;100485.81;;;27.21;38.89
71126;BME280;58785;55.566;38.058;2022-08-01T09:54:33;100484.44;;;27.36;38.58
71126;BME280;58785;55.566;38.058;2022-08-01T09:57:13;100476.59;;;27.44;38.68
71126;BME280;58785;55.566;38.058;2022-08-01T09:59:42;100471.47;;;27.48;38.28
71126;BME280;58785;55.566;38.058;2022-08-01T10:02:10;100474.13;;;27.43;37.44
71126;BME280;58785;55.566;38.058;2022-08-01T10:04:46;100470.25;;;27.39;37.49
71126;BME280;58785;55.566;38.058;2022-08-01T10:07:12;100464.09;;;27.32;37.25
71126;BME280;58785;55.566;38.058;2022-08-01T10:09:41;100467.81;;;27.26;37.11
71126;BME280;58785;55.566;38.058;2022-08-01T10:12:09;100468.31;;;27.23;36.60
71126;BME280;58785;55.566;38.058;2022-08-01T10:14:37;100458.03;;;27.30;37.12
71126;BME280;58785;55.566;38.058;2022-08-01T10:17:03;100461.66;;;27.35;36.65
71126;BME280;58785;55.566;38.058;2022-08-01T10:19:32;100463.94;;;27.38;37.48
71126;BME280;58785;55.566;38.058;2022-08-01T10:22:00;100464.19;;;27.37;37.35
71126;BME280;58785;55.566;38.058;2022-08-01T10:24:28;100454.88;;;27.38;37.64
71126;BME280;58785;55.566;38.058;2022-08-01T10:27:01;100466.00;;;27.48;37.29
71126;BME280;58785;55.566;38.058;2022-08-01T10:29:59;100466.47;;;27.45;36.48
71126;BME280;58785;55.566;38.058;2022-08-01T10:32:31;100461.09;;;27.50;36.56
71126;BME280;58785;55.566;38.058;2022-08-01T10:34:58;100466.06;;;27.53;36.36
71126;BME280;58785;55.566;38.058;2022-08-01T10:37:24;100467.47;;;27.56;36.49
71126;BME280;58785;55.566;38.058;2022-08-01T10:39:54;100462.91;;;27.61;36.72
71126;BME280;58785;55.566;38.058;2022-08-01T10:42:22;100464.91;;;27.66;36.73
71126;BME280;58785;55.566;38.058;2022-08-01T10:44:49;100462.53;;;27.69;36.80
71126;BME280;58785;55.566;38.058;2022-08-01T10:47:23;100458.44;;;27.72;37.05
71126;BME280;58785;55.566;38.058;2022-08-01T10:50:13;100454.97;;;27.76;37.11
71126;BME280;58785;55.566;38.058;2022-08-01T10:52:41;100456.09;;;27.81;36.96
71126;BME280;58785;55.566;38.058;2022-08-01T10:55:08;100451.38;;;27.76;36.67
71126;BME280;58785;55.566;38.058;2022-08-01T10:57:46;100459.00;;;27.74;37.61
71126;BME280;58785;55.566;38.058;2022-08-01T11:00:21;100450.53;;;27.75;37.57
71126;BME280;58785;55.566;38.058;2022-08-01T11:03:01;100446.91;;;27.70;36.60
71126;BME280;58785;55.566;38.058;2022-08-01T11:05:31;100442.75;;;27.67;36.19
71126;BME280;58785;55.566;38.058;2022-08-01T11:08:01;100445.00;;;27.70;37.44
71126;BME280;58785;55.566;38.058;2022-08-01T11:10:41;100446.38;;;27.73;36.42
71126;BME280;58785;55.566;38.058;2022-08-01T11:13:10;100435.38;;;27.68;37.00
71126;BME280;58785;55.566;38.058;2022-08-01T11:15:40;100438.44;;;27.71;36.92
71126;BME280;58785;55.566;38.058;2022-08-01T11:18:49;100439.25;;;27.72;37.01
71126;BME280;58785;55.566;38.058;2022-08-01T11:21:15;100442.50;;;27.69;36.45
71126;BME280;58785;55.566;38.058;2022-08-01T11:23:48;100437.59;;;27.71;35.92
71126;BME280;58785;55.566;38.058;2022-08-01T11:26:15;100431.44;;;27.64;36.39
71126;BME280;58785;55.566;38.058;2022-08-01T11:28:42;100427.59;;;27.65;36.40
71126;BME280;58785;55.566;38.058;2022-08-01T11:41:21;100428.84;;;27.74;36.29
71126;BME280;58785;55.566;38.058;2022-08-01T11:49:31;100429.56;;;27.31;37.41
71126;BME280;58785;55.566;38.058;2022-08-01T11:57:19;100418.59;;;27.31;36.65
71126;BME280;58785;55.566;38.058;2022-08-01T11:59:49;100408.81;;;27.35;37.01
71126;BME280;58785;55.566;38.058;2022-08-01T12:02:35;100402.66;;;27.44;38.07
71126;BME280;58785;55.566;38.058;2022-08-01T12:07:30;100399.03;;;27.39;37.97
71126;BME280;58785;55.566;38.058;2022-08-01T12:10:11;100398.94;;;27.34;37.86
71126;BME280;58785;55.566;38.058;2022-08-01T12:12:44;100403.94;;;27.37;37.24
71126;BME280;58785;55.566;38.058;2022-08-01T12:15:10;100398.34;;;27.32;36.76
71126;BME280;58785;55.566;38.058;2022-08-01T12:17:40;100395.31;;;27.28;36.49
71126;BME280;58785;55.566;38.058;2022-08-01T12:20:09;100391.53;;;27.34;36.22
71126;BME280;58785;55.566;38.058;2022-08-01T12:22:35;100396.84;;;27.41;36.54
71126;BME280;58785;55.566;38.058;2022-08-01T12:25:08;100400.25;;;27.48;36.91
71126;BME280;58785;55.566;38.058;2022-08-01T12:27:35;100399.47;;;27.53;36.92
71126;BME280;58785;55.566;38.058;2022-08-01T12:30:02;100403.97;;;27.59;36.92
71126;BME280;58785;55.566;38.058;2022-08-01T12:32:33;100396.56;;;27.59;36.91
71126;BME280;58785;55.566;38.058;2022-08-01T12:35:09;100392.50;;;27.62;37.24
71126;BME280;58785;55.566;38.058;2022-08-01T12:37:41;100401.06;;;27.65;37.01
71126;BME280;58785;55.566;38.058;2022-08-01T12:42:43;100386.75;;;27.63;35.73
71126;BME280;58785;55.566;38.058;2022-08-01T12:45:11;100388.34;;;27.59;36.50
71126;BME280;58785;55.566;38.058;2022-08-01T12:47:38;100393.06;;;27.64;36.49
71126;BME280;58785;55.566;38.058;2022-08-01T12:50:11;100387.84;;;27.62;37.62
71126;BME280;58785;55.566;38.058;2022-08-01T12:52:38;100382.47;;;27.67;37.21
71126;BME280;58785;55.566;38.058;2022-08-01T12:57:30;100379.63;;;27.62;37.30
71126;BME280;58785;55.566;38.058;2022-08-01T13:00:09;100381.38;;;27.52;36.03
71126;BME280;58785;55.566;38.058;2022-08-01T13:02:35;100379.59;;;27.40;36.86
71126;BME280;58785;55.566;38.058;2022-08-01T13:05:02;100378.88;;;27.28;36.97
71126;BME280;58785;55.566;38.058;2022-08-01T13:07:48;100378.97;;;27.16;36.90
71126;BME280;58785;55.566;38.058;2022-08-01T13:10:23;100373.97;;;26.97;37.41
71126;BME280;58785;55.566;38.058;2022-08-01T13:12:55;100372.56;;;26.77;37.54
71126;BME280;58785;55.566;38.058;2022-08-01T13:17:49;100374.25;;;26.50;37.57
71126;BME280;58785;55.566;38.058;2022-08-01T13:20:40;100370.94;;;26.48;37.98
71126;BME280;58785;55.566;38.058;2022-08-01T13:23:17;100366.03;;;26.50;37.25
71126;BME280;58785;55.566;38.058;2022-08-01T13:25:51;100372.97;;;26.41;37.67
71126;BME280;58785;55.566;38.058;2022-08-01T13:28:26;100358.97;;;26.25;37.98
71126;BME280;58785;55.566;38.058;2022-08-01T13:31:00;100370.31;;;26.17;37.90
71126;BME280;58785;55.566;38.058;2022-08-01T13:33:28;100369.38;;;26.12;38.21